Time;durP1;ratioP1;P1;durP2;ratioP2;P2;SDS_P1;SDS_P2;PMS_P1;PMS_P2;Temp;Humidity;BMP_temperature;BMP_pressure;BME280_temperature;BME280_humidity;BME280_pressure;Samples;Min_cycle;Max_cycle;Signal;HPM_P1;HPM_P2
2024/03/20 00:00:01;;;;;;;5.90;3.80;;;;;;;1.69;67.99;99199.84;104784;1272;61182;-27
2024/03/20 00:02:38;;;;;;;4.90;3.50;;;;;;;2.42;66.47;99195.33;104778;1272;61180;-26
2024/03/20 00:05:07;;;;;;;4.80;3.30;;;;;;;2.69;65.51;99196.70;104818;1273;73117;-26
2024/03/20 00:07:34;;;;;;;5.10;3.50;;;;;;;2.62;65.24;99195.80;104863;1272;74742;-26
2024/03/20 00:10:03;;;;;;;5.70;3.50;;;;;;;2.39;65.40;99194.76;104569;1272;326376;-29
2024/03/20 00:12:30;;;;;;;5.60;3.00;;;;;;;2.18;65.95;99195.02;104811;1275;61201;-28
2024/03/20 00:14:58;;;;;;;4.70;2.80;;;;;;;1.96;66.76;99198.05;104841;1270;61163;-27
2024/03/20 00:24:59;;;;;;;3.40;2.40;;;;;;;1.21;68.33;99191.05;102810;1289;599508;-27
2024/03/20 00:27:27;;;;;;;3.30;2.60;;;;;;;0.97;69.18;99192.37;104870;1267;60986;-27
2024/03/20 00:29:55;;;;;;;3.70;2.90;;;;;;;1.49;69.21;99191.44;104950;1269;61330;-27
2024/03/20 00:32:22;;;;;;;7.30;3.20;;;;;;;2.40;66.82;99186.86;104827;1264;73056;-27
2024/03/20 00:34:50;;;;;;;5.70;3.30;;;;;;;2.59;64.89;99191.66;104817;1270;72901;-28
2024/03/20 00:37:17;;;;;;;5.20;4.10;;;;;;;2.39;64.65;99188.42;104765;1267;72692;-28
2024/03/20 00:39:45;;;;;;;6.40;4.00;;;;;;;2.10;65.66;99193.50;104899;1263;216107;-27
2024/03/20 00:42:13;;;;;;;8.40;4.40;;;;;;;1.88;66.28;99197.19;104848;1268;61148;-28
2024/03/20 00:44:41;;;;;;;8.90;4.30;;;;;;;1.67;67.59;99195.83;105148;1266;71845;-27
2024/03/20 00:47:08;;;;;;;7.00;3.90;;;;;;;1.49;68.66;99195.58;105090;1264;73075;-27
2024/03/20 00:49:36;;;;;;;4.30;3.10;;;;;;;1.31;69.99;99199.20;105112;1262;71898;-27
2024/03/20 00:52:04;;;;;;;5.70;3.40;;;;;;;1.81;70.13;99195.92;105054;1267;61185;-27
2024/03/20 00:54:31;;;;;;;6.00;3.60;;;;;;;2.66;67.85;99194.57;104850;1264;61090;-28
2024/03/20 00:57:00;;;;;;;7.20;4.00;;;;;;;2.88;66.38;99190.63;104865;1263;73837;-28
2024/03/20 00:59:28;;;;;;;6.10;4.30;;;;;;;2.73;66.04;99189.43;104978;1268;73178;-28
2024/03/20 01:01:55;;;;;;;7.20;5.00;;;;;;;2.45;66.24;99187.98;105106;1264;72667;-27
2024/03/20 01:04:23;;;;;;;6.10;3.40;;;;;;;2.21;66.38;99192.16;104905;1269;61154;-28
2024/03/20 01:06:51;;;;;;;5.70;3.40;;;;;;;1.98;66.68;99194.20;104811;1269;61205;-28
2024/03/20 01:16:52;;;;;;;3.70;2.30;;;;;;;1.20;69.43;99197.27;102683;1292;598945;-28
2024/03/20 01:19:20;;;;;;;3.80;2.70;;;;;;;1.70;69.24;99193.83;104831;1269;61182;-27
2024/03/20 01:21:47;;;;;;;5.20;3.10;;;;;;;2.45;66.01;99190.38;104800;1266;61143;-28
2024/03/20 01:24:15;;;;;;;4.50;3.60;;;;;;;2.46;64.21;99186.89;104834;1266;73115;-28
2024/03/20 01:26:43;;;;;;;5.90;3.60;;;;;;;2.15;65.49;99188.13;104836;1270;74320;-28
2024/03/20 01:29:10;;;;;;;5.20;3.90;;;;;;;1.81;66.95;99184.97;104859;1270;72722;-28
2024/03/20 01:31:38;;;;;;;5.90;3.90;;;;;;;1.23;68.46;99185.86;104696;1263;204149;-28
2024/03/20 01:34:06;;;;;;;5.30;4.10;;;;;;;0.97;71.09;99184.66;105121;1263;61074;-27
2024/03/20 01:44:13;;;;;;;5.10;3.40;;;;;;;2.27;68.77;99183.32;102823;1289;598756;-25
2024/03/20 01:46:41;;;;;;;6.60;3.60;;;;;;;2.14;68.05;99183.39;105088;1265;61135;-27
2024/03/20 01:49:08;;;;;;;4.90;3.80;;;;;;;1.78;69.46;99184.11;105040;1269;61271;-27
2024/03/20 01:51:37;;;;;;;5.50;3.80;;;;;;;1.52;70.06;99186.87;104621;1270;71896;-27
2024/03/20 01:54:05;;;;;;;6.00;4.20;;;;;;;1.32;71.16;99187.70;104839;1272;73692;-27
2024/03/20 01:56:33;;;;;;;4.80;3.20;;;;;;;1.08;72.40;99185.60;104828;1272;72642;-28
2024/03/20 01:59:00;;;;;;;10.70;3.80;;;;;;;1.51;71.87;99187.09;105024;1269;186916;-28
2024/03/20 02:01:28;;;;;;;4.90;3.90;;;;;;;2.21;69.62;99186.33;104852;1266;61110;-28
2024/03/20 02:03:57;;;;;;;7.90;4.40;;;;;;;2.36;67.83;99183.77;105092;1269;73010;-28
2024/03/20 02:06:26;;;;;;;5.70;3.70;;;;;;;2.05;68.90;99186.15;104861;1267;74354;-27
2024/03/20 02:08:55;;;;;;;7.50;4.80;;;;;;;1.91;69.93;99187.98;104832;1267;71701;-28
2024/03/20 02:11:25;;;;;;;6.00;3.70;;;;;;;1.75;70.84;99188.84;104734;1264;61097;-28
2024/03/20 02:13:54;;;;;;;6.20;4.30;;;;;;;1.57;71.41;99192.15;104862;1264;61125;-27
2024/03/20 02:16:22;;;;;;;5.50;3.30;;;;;;;1.36;72.11;99190.79;104792;1266;73845;-27
2024/03/20 02:18:50;;;;;;;7.00;4.40;;;;;;;1.79;71.58;99190.17;105169;1269;74522;-27
2024/03/20 02:28:57;;;;;;;6.90;5.00;;;;;;;2.61;68.19;99195.31;102702;1290;599059;-25
2024/03/20 02:31:25;;;;;;;9.80;4.70;;;;;;;2.36;68.17;99193.35;105049;1269;61139;-26
2024/03/20 02:33:53;;;;;;;6.70;3.30;;;;;;;2.07;68.01;99193.95;105019;1269;61183;-28
2024/03/20 02:36:21;;;;;;;7.90;4.80;;;;;;;1.61;69.29;99194.36;104918;1264;73159;-27
2024/03/20 02:38:49;;;;;;;6.10;3.70;;;;;;;1.23;71.29;99194.23;105041;1269;73356;-27
2024/03/20 02:41:17;;;;;;;4.30;3.40;;;;;;;1.48;72.70;99190.98;105058;1264;72694;-27
2024/03/20 02:51:43;;;;;;;11.30;7.00;;;;;;;2.11;72.29;99193.95;102438;1292;616738;-27
2024/03/20 02:54:10;;;;;;;9.00;5.10;;;;;;;1.98;73.14;99192.45;104829;1267;61094;-27
2024/03/20 02:56:37;;;;;;;13.20;5.90;;;;;;;1.59;75.10;99193.27;104994;1269;61202;-28
2024/03/20 02:59:04;;;;;;;13.10;7.50;;;;;;;2.06;74.83;99190.20;104974;1269;72729;-27
2024/03/20 03:01:32;;;;;;;11.80;5.30;;;;;;;2.63;72.66;99188.89;104775;1267;74414;-27
2024/03/20 03:03:59;;;;;;;9.40;5.30;;;;;;;2.89;71.40;99185.26;104666;1271;227960;-27
2024/03/20 03:06:26;;;;;;;9.10;5.40;;;;;;;2.68;71.99;99191.56;104800;1264;60997;-27
2024/03/20 03:08:53;;;;;;;10.30;6.20;;;;;;;2.39;73.23;99193.56;105109;1267;61182;-27
2024/03/20 03:11:20;;;;;;;10.00;6.30;;;;;;;2.33;73.51;99190.73;105213;1264;73353;-27
2024/03/20 03:13:46;;;;;;;8.50;5.70;;;;;;;2.18;74.14;99195.67;105201;1269;74729;-26
2024/03/20 03:16:13;;;;;;;6.90;4.40;;;;;;;2.60;73.07;99196.58;104985;1267;73002;-26
2024/03/20 03:18:40;;;;;;;6.70;4.10;;;;;;;2.72;72.40;99196.50;105036;1273;61080;-27
2024/03/20 03:21:10;;;;;;;8.80;5.50;;;;;;;2.75;72.47;99195.01;104967;1265;61186;-27
2024/03/20 03:23:37;;;;;;;11.50;5.60;;;;;;;2.76;72.28;99195.32;104717;1270;73825;-27
2024/03/20 03:26:04;;;;;;;13.90;7.40;;;;;;;2.64;72.76;99199.15;104861;1273;74092;-27
2024/03/20 03:28:31;;;;;;;10.70;4.90;;;;;;;2.39;73.79;99200.58;105193;1264;72531;-26
2024/03/20 03:30:59;;;;;;;15.70;8.20;;;;;;;2.54;73.57;99203.37;105168;1264;60978;-26
2024/03/20 03:33:26;;;;;;;17.60;7.50;;;;;;;3.30;71.33;99210.26;105132;1267;61188;-27
2024/03/20 03:36:06;;;;;;;20.70;9.60;;;;;;;3.53;69.70;99212.73;104876;1264;73954;-27
2024/03/20 03:38:34;;;;;;;17.60;7.50;;;;;;;3.53;69.48;99216.70;104899;1270;74321;-27
2024/03/20 03:41:04;;;;;;;16.60;7.20;;;;;;;3.42;69.43;99217.41;104744;1263;72659;-27
2024/03/20 03:43:31;;;;;;;10.40;4.90;;;;;;;3.19;70.06;99218.34;105268;1264;61224;-27
2024/03/20 03:45:58;;;;;;;6.80;4.00;;;;;;;2.98;70.58;99219.48;105395;1264;61098;-27
2024/03/20 03:48:26;;;;;;;3.70;2.70;;;;;;;2.72;71.66;99217.11;105089;1261;73887;-27
2024/03/20 03:50:53;;;;;;;7.00;3.90;;;;;;;2.94;71.75;99212.84;105474;1263;74208;-27
2024/03/20 03:53:20;;;;;;;5.70;3.20;;;;;;;3.48;70.12;99216.08;105633;1258;72651;-28
2024/03/20 03:55:47;;;;;;;5.50;3.40;;;;;;;3.68;68.94;99217.83;105584;1254;61128;-28
2024/03/20 03:58:15;;;;;;;4.70;2.70;;;;;;;3.69;68.61;99216.43;105629;1261;61109;-28
2024/03/20 04:00:42;;;;;;;6.60;4.10;;;;;;;3.52;69.08;99217.92;105645;1254;73594;-27
2024/03/20 04:03:09;;;;;;;4.30;2.70;;;;;;;3.49;69.04;99220.14;105648;1259;74867;-28
2024/03/20 04:05:35;;;;;;;5.90;3.50;;;;;;;3.20;69.65;99217.59;105667;1254;72711;-28
2024/03/20 04:08:03;;;;;;;3.20;2.10;;;;;;;2.83;71.26;99218.30;105667;1260;61014;-28
2024/03/20 04:10:30;;;;;;;4.70;2.90;;;;;;;3.29;70.86;99219.91;105681;1255;61182;-28
2024/03/20 04:12:57;;;;;;;4.40;3.20;;;;;;;3.87;69.11;99221.52;105657;1254;74274;-28
2024/03/20 04:15:24;;;;;;;10.00;5.30;;;;;;;3.52;70.70;99221.39;105666;1254;74153;-25
2024/03/20 04:17:51;;;;;;;13.60;6.00;;;;;;;3.77;69.72;99221.33;105647;1255;72505;-25
2024/03/20 04:20:19;;;;;;;11.90;6.60;;;;;;;3.41;70.97;99219.52;105577;1255;61111;-26
2024/03/20 04:22:47;;;;;;;13.80;7.20;;;;;;;3.49;70.66;99222.36;105634;1254;61180;-25
2024/03/20 04:25:14;;;;;;;18.20;9.20;;;;;;;3.18;71.96;99219.92;105703;1254;73726;-26
2024/03/20 04:27:41;;;;;;;15.60;6.70;;;;;;;3.11;73.45;99220.74;105636;1260;74061;-27
2024/03/20 04:30:12;;;;;;;8.00;5.00;;;;;;;4.21;70.62;99226.31;105581;1256;72479;-28
2024/03/20 04:32:39;;;;;;;8.20;4.80;;;;;;;4.62;68.09;99230.67;105394;1263;61174;-29
2024/03/20 04:35:07;;;;;;;44.90;19.40;;;;;;;4.58;67.79;99235.08;105624;1255;61036;-29
2024/03/20 04:37:34;;;;;;;26.20;13.60;;;;;;;4.40;68.27;99238.71;105320;1264;73913;-29
2024/03/20 04:40:03;;;;;;;37.50;15.90;;;;;;;4.29;68.58;99235.88;105636;1254;74625;-28
2024/03/20 04:42:30;;;;;;;18.90;9.90;;;;;;;3.99;69.50;99234.13;105341;1263;72485;-28
2024/03/20 04:44:57;;;;;;;17.20;10.40;;;;;;;3.95;69.82;99237.96;105624;1255;61085;-28
2024/03/20 04:47:24;;;;;;;19.10;8.00;;;;;;;3.74;70.75;99240.88;105654;1255;61147;-28
2024/03/20 04:49:53;;;;;;;7.70;4.60;;;;;;;4.35;69.91;99251.39;105670;1254;73858;-28
2024/03/20 04:52:19;;;;;;;8.90;4.50;;;;;;;5.03;67.45;99246.89;105597;1260;74386;-28
2024/03/20 04:54:46;;;;;;;9.40;5.50;;;;;;;5.11;66.11;99247.83;105631;1254;72649;-27
2024/03/20 04:57:13;;;;;;;10.10;5.70;;;;;;;4.96;66.36;99248.13;105613;1254;61223;-26
2024/03/20 04:59:40;;;;;;;10.70;5.80;;;;;;;4.54;67.31;99254.51;105356;1254;61135;-26
2024/03/20 05:02:07;;;;;;;9.20;4.70;;;;;;;4.36;68.16;99257.86;105644;1254;73717;-25
2024/03/20 05:04:34;;;;;;;4.30;3.60;;;;;;;4.22;68.61;99255.67;105599;1259;74315;-25
2024/03/20 05:07:01;;;;;;;7.50;5.20;;;;;;;3.73;70.24;99254.50;105641;1259;72057;-25
2024/03/20 05:09:28;;;;;;;4.60;3.20;;;;;;;3.63;71.67;99251.21;105280;1257;61204;-25
2024/03/20 05:11:56;;;;;;;11.20;7.70;;;;;;;4.37;69.02;99254.34;105439;1257;61080;-25
2024/03/20 05:14:23;;;;;;;16.20;11.40;;;;;;;5.23;66.24;99256.46;105266;1254;74350;-25
2024/03/20 05:16:51;;;;;;;18.30;13.00;;;;;;;5.47;64.96;99261.27;105548;1259;74270;-25
2024/03/20 05:19:18;;;;;;;22.90;14.20;;;;;;;5.48;64.90;99261.75;105317;1257;72596;-25
2024/03/20 05:21:45;;;;;;;17.70;11.00;;;;;;;5.28;64.70;99263.43;105573;1260;61035;-25
2024/03/20 05:24:12;;;;;;;13.70;8.70;;;;;;;5.10;65.57;99262.70;105541;1260;61202;-25
2024/03/20 05:26:39;;;;;;;9.60;6.40;;;;;;;4.98;65.99;99265.04;105467;1254;74253;-25
2024/03/20 05:29:06;;;;;;;14.50;7.10;;;;;;;4.75;66.52;99266.31;105667;1260;74155;-26
2024/03/20 05:31:34;;;;;;;4.70;2.80;;;;;;;4.37;68.04;99266.05;105642;1257;72320;-25
2024/03/20 05:34:00;;;;;;;7.10;4.40;;;;;;;4.88;67.90;99263.14;105691;1254;61047;-25
2024/03/20 05:36:27;;;;;;;4.50;3.60;;;;;;;5.61;66.04;99265.65;105640;1260;61205;-22
2024/03/20 05:38:54;;;;;;;5.80;4.00;;;;;;;5.73;64.72;99266.90;105661;1254;73640;-22
2024/03/20 05:41:22;;;;;;;4.40;3.10;;;;;;;5.58;64.73;99266.52;105677;1259;74420;-23
2024/03/20 05:43:51;;;;;;;5.10;3.10;;;;;;;5.38;65.12;99265.27;105651;1254;71768;-23
2024/03/20 05:46:17;;;;;;;4.10;3.10;;;;;;;4.99;66.04;99264.81;105640;1254;61088;-23
2024/03/20 05:48:44;;;;;;;4.80;3.10;;;;;;;4.90;66.71;99264.96;105606;1254;61121;-23
2024/03/20 05:51:12;;;;;;;3.00;2.70;;;;;;;4.75;67.40;99273.70;105674;1254;73731;-24
2024/03/20 05:53:39;;;;;;;3.30;2.30;;;;;;;4.64;67.94;99267.41;105593;1260;74882;-25
2024/03/20 05:56:05;;;;;;;3.10;2.10;;;;;;;5.25;67.31;99269.27;105570;1254;72628;-24
2024/03/20 05:58:32;;;;;;;4.30;2.60;;;;;;;5.90;64.81;99275.41;105601;1254;61088;-26
2024/03/20 06:01:00;;;;;;;3.10;2.30;;;;;;;6.15;63.69;99267.73;105652;1261;61154;-24
2024/03/20 06:03:27;;;;;;;2.90;2.20;;;;;;;5.91;63.76;99273.42;105297;1255;73643;-25
2024/03/20 06:05:54;;;;;;;2.70;2.40;;;;;;;5.58;64.38;99271.91;105525;1254;75888;-27
2024/03/20 06:08:22;;;;;;;4.30;2.80;;;;;;;5.44;65.44;99275.27;105557;1258;72638;-27
2024/03/20 06:10:51;;;;;;;3.60;2.90;;;;;;;5.35;65.50;99278.33;105624;1254;61004;-25
2024/03/20 06:13:19;;;;;;;4.70;3.60;;;;;;;5.37;66.04;99282.70;105379;1254;61688;-25
2024/03/20 06:15:46;;;;;;;12.30;7.80;;;;;;;5.28;66.21;99283.70;105655;1254;73857;-27
2024/03/20 06:18:13;;;;;;;12.90;8.00;;;;;;;5.85;64.51;99288.96;105642;1260;74222;-26
2024/03/20 06:20:40;;;;;;;29.00;16.00;;;;;;;6.71;62.67;99285.77;105418;1255;72613;-26
2024/03/20 06:23:07;;;;;;;29.30;17.20;;;;;;;7.01;61.05;99291.06;105253;1254;61099;-26
2024/03/20 06:25:36;;;;;;;25.80;15.50;;;;;;;6.95;61.11;99295.19;105416;1260;61176;-24
2024/03/20 06:28:03;;;;;;;14.40;10.20;;;;;;;6.43;62.20;99299.55;105249;1257;73859;-27
2024/03/20 06:30:30;;;;;;;7.80;6.20;;;;;;;5.79;63.58;99305.98;105630;1254;74790;-26
2024/03/20 06:32:57;;;;;;;18.30;10.50;;;;;;;5.91;64.02;99308.09;105487;1257;72467;-26
2024/03/20 06:35:24;;;;;;;8.20;6.00;;;;;;;4.95;66.69;99304.27;105556;1254;61167;-26
2024/03/20 06:37:54;;;;;;;40.20;24.30;;;;;;;5.48;66.38;99305.00;105595;1254;61090;-24
2024/03/20 06:40:21;;;;;;;11.70;6.50;;;;;;;5.18;66.19;99305.77;105600;1254;74838;-26
2024/03/20 06:42:50;;;;;;;9.80;5.20;;;;;;;5.50;65.32;99308.35;105426;1254;74309;-25
2024/03/20 06:45:16;;;;;;;13.30;7.80;;;;;;;5.72;63.38;99307.80;105469;1256;72619;-26
2024/03/20 06:47:44;;;;;;;35.20;19.00;;;;;;;4.96;65.01;99311.63;105508;1255;61147;-25
2024/03/20 06:50:11;;;;;;;17.50;9.90;;;;;;;5.15;64.94;99309.23;105542;1259;61131;-26
2024/03/20 06:52:39;;;;;;;14.30;8.80;;;;;;;4.92;66.37;99314.91;105640;1254;76232;-26
2024/03/20 06:55:14;;;;;;;52.60;30.80;;;;;;;4.54;65.71;99314.51;105657;1254;74887;-25
2024/03/20 06:57:41;;;;;;;18.40;12.00;;;;;;;4.98;65.94;99323.90;105283;1258;72695;-25
2024/03/20 07:00:17;;;;;;;11.00;7.20;;;;;;;5.46;64.36;99319.23;105439;1261;61423;-23
2024/03/20 07:02:45;;;;;;;51.30;27.10;;;;;;;5.70;63.91;99323.05;105554;1262;61911;-23
2024/03/20 07:05:13;;;;;;;18.40;11.10;;;;;;;6.10;63.18;99329.23;105639;1254;76494;-23
2024/03/20 07:07:42;;;;;;;31.00;16.80;;;;;;;6.27;62.44;99331.02;105304;1262;75734;-23
2024/03/20 07:10:10;;;;;;;9.10;5.40;;;;;;;6.39;60.04;99329.42;105628;1254;74571;-23
2024/03/20 07:12:37;;;;;;;15.60;9.80;;;;;;;7.27;57.56;99325.83;105641;1259;62115;-22
2024/03/20 07:15:08;;;;;;;5.50;3.30;;;;;;;7.49;60.45;99330.13;105835;1256;61942;-23
2024/03/20 07:17:35;;;;;;;4.50;3.30;;;;;;;7.60;59.68;99333.43;105651;1254;76440;-24
2024/03/20 07:20:07;;;;;;;4.80;3.60;;;;;;;7.12;61.22;99334.21;105656;1254;75010;-24
2024/03/20 07:22:36;;;;;;;4.70;3.50;;;;;;;6.69;62.02;99337.16;105618;1254;72496;-24
2024/03/20 07:25:07;;;;;;;5.50;3.40;;;;;;;6.11;63.92;99339.90;105493;1259;61284;-24
2024/03/20 07:27:34;;;;;;;6.30;3.70;;;;;;;5.87;64.69;99340.91;105699;1252;61423;-25
2024/03/20 07:30:03;;;;;;;5.90;4.30;;;;;;;5.65;65.80;99345.21;105934;1254;76654;-24
2024/03/20 07:32:31;;;;;;;3.80;2.40;;;;;;;5.52;66.46;99341.14;105685;1254;75694;-24
2024/03/20 07:34:58;;;;;;;4.00;3.30;;;;;;;6.10;65.25;99340.41;105716;1253;74198;-24
2024/03/20 07:37:25;;;;;;;6.20;3.60;;;;;;;6.91;62.43;99341.55;105829;1257;62115;-24
2024/03/20 07:39:53;;;;;;;5.50;4.30;;;;;;;6.76;61.87;99339.63;105771;1257;61617;-24
2024/03/20 07:42:20;;;;;;;9.00;5.90;;;;;;;6.66;62.20;99338.88;105667;1254;76075;-24
2024/03/20 07:44:48;;;;;;;8.50;5.30;;;;;;;5.98;63.78;99338.56;105842;1257;75630;-24
2024/03/20 07:47:15;;;;;;;4.90;3.10;;;;;;;5.67;64.19;99338.88;105867;1254;74548;-24
2024/03/20 07:49:45;;;;;;;7.40;4.70;;;;;;;5.83;64.63;99341.98;105601;1254;61423;-24
2024/03/20 07:52:13;;;;;;;5.20;3.50;;;;;;;5.60;65.53;99337.75;105941;1256;61668;-24
2024/03/20 07:54:40;;;;;;;6.30;3.70;;;;;;;5.79;64.84;99343.77;105848;1254;75333;-24
2024/03/20 07:57:07;;;;;;;5.40;3.60;;;;;;;5.37;64.13;99340.00;105902;1256;76010;-25
2024/03/20 07:59:34;;;;;;;11.80;7.30;;;;;;;5.72;62.53;99344.48;105824;1254;74533;-23
2024/03/20 08:02:02;;;;;;;11.40;9.60;;;;;;;6.90;59.78;99346.77;105830;1257;61905;-24
2024/03/20 08:04:29;;;;;;;3.50;2.40;;;;;;;6.25;60.45;99345.08;105679;1259;61234;-24
2024/03/20 08:06:56;;;;;;;4.60;2.80;;;;;;;5.86;62.36;99346.77;105815;1256;76155;-24
2024/03/20 08:09:24;;;;;;;5.00;4.00;;;;;;;5.25;62.48;99346.92;105890;1256;75936;-25
2024/03/20 08:11:51;;;;;;;5.70;3.90;;;;;;;5.34;63.33;99348.11;105912;1254;74651;-24
2024/03/20 08:14:18;;;;;;;4.40;2.90;;;;;;;5.94;61.50;99349.46;105882;1253;61322;-24
2024/03/20 08:16:47;;;;;;;6.90;5.00;;;;;;;6.19;59.97;99342.52;105894;1256;61716;-25
2024/03/20 08:19:15;;;;;;;16.80;10.10;;;;;;;5.58;61.67;99348.33;105852;1255;75463;-25
2024/03/20 08:21:42;;;;;;;12.90;8.30;;;;;;;5.53;62.32;99348.96;105671;1260;75756;-26
2024/03/20 08:24:09;;;;;;;15.70;8.90;;;;;;;5.57;62.33;99346.70;105899;1256;74229;-24
2024/03/20 08:26:38;;;;;;;11.90;7.90;;;;;;;6.02;60.95;99346.73;105895;1254;61817;-24
2024/03/20 08:29:06;;;;;;;6.00;4.40;;;;;;;6.43;59.19;99347.33;105907;1256;62020;-24
2024/03/20 08:31:33;;;;;;;35.20;17.90;;;;;;;7.33;57.33;99343.60;105918;1254;75464;-24
2024/03/20 08:34:01;;;;;;;11.20;6.60;;;;;;;7.02;57.48;99347.40;105747;1259;75925;-24
2024/03/20 08:36:29;;;;;;;13.20;7.00;;;;;;;6.63;58.29;99349.23;105912;1254;74424;-25
2024/03/20 08:38:56;;;;;;;10.80;7.20;;;;;;;6.24;59.79;99345.48;105725;1254;61250;-24
2024/03/20 08:41:23;;;;;;;7.90;5.70;;;;;;;6.05;60.94;99344.50;105925;1257;61694;-25
2024/03/20 08:43:51;;;;;;;43.60;29.80;;;;;;;6.02;61.11;99344.00;105902;1254;76654;-24
2024/03/20 08:46:19;;;;;;;9.20;7.30;;;;;;;5.89;60.70;99345.94;105912;1256;75681;-24
2024/03/20 08:48:46;;;;;;;7.70;5.10;;;;;;;5.90;60.45;99347.09;105704;1254;74242;-26
2024/03/20 08:51:14;;;;;;;7.10;4.20;;;;;;;6.18;60.04;99349.63;105922;1254;61637;-25
2024/03/20 08:53:41;;;;;;;4.70;3.40;;;;;;;6.61;57.97;99352.10;105752;1258;61738;-25
2024/03/20 08:56:08;;;;;;;3.90;3.10;;;;;;;6.87;57.20;99350.20;105698;1254;76125;-25
2024/03/20 08:58:35;;;;;;;2.90;2.60;;;;;;;7.28;57.48;99348.24;105934;1256;76174;-25
2024/03/20 09:01:03;;;;;;;3.50;2.80;;;;;;;7.53;58.47;99349.43;105542;1254;74577;-25
2024/03/20 09:03:30;;;;;;;3.80;3.20;;;;;;;7.79;55.87;99352.80;105704;1256;61161;-24
2024/03/20 09:05:57;;;;;;;3.70;3.00;;;;;;;8.17;54.65;99353.41;105679;1256;62122;-24
2024/03/20 09:08:24;;;;;;;6.10;3.70;;;;;;;8.33;55.59;99352.57;105746;1254;75884;-24
2024/03/20 09:10:52;;;;;;;6.60;4.40;;;;;;;8.19;53.38;99352.42;105787;1254;76248;-24
2024/03/20 09:13:19;;;;;;;5.10;3.90;;;;;;;8.22;52.23;99348.95;105891;1254;74464;-24
2024/03/20 09:15:46;;;;;;;6.70;4.90;;;;;;;8.43;52.83;99356.58;105926;1253;61377;-24
2024/03/20 09:18:14;;;;;;;10.80;6.80;;;;;;;7.49;54.21;99355.54;105819;1256;62164;-24
2024/03/20 09:20:41;;;;;;;4.70;2.80;;;;;;;7.66;54.97;99356.86;105858;1256;75045;-24
2024/03/20 09:23:09;;;;;;;3.40;2.60;;;;;;;7.39;55.43;99356.86;105758;1259;76051;-25
2024/03/20 09:25:36;;;;;;;3.60;2.40;;;;;;;7.93;53.83;99357.44;105925;1253;74315;-24
2024/03/20 09:28:03;;;;;;;5.20;3.60;;;;;;;7.60;55.08;99356.54;105914;1252;61292;-24
2024/03/20 09:30:31;;;;;;;5.00;3.70;;;;;;;6.85;57.04;99360.48;105705;1253;61955;-24
2024/03/20 09:32:58;;;;;;;5.60;4.50;;;;;;;7.02;55.95;99359.50;105637;1254;76672;-24
2024/03/20 09:35:25;;;;;;;7.10;3.90;;;;;;;6.95;56.98;99358.00;105710;1259;75865;-25
2024/03/20 09:37:53;;;;;;;10.80;5.10;;;;;;;7.20;55.88;99357.90;105705;1259;74164;-25
2024/03/20 09:40:25;;;;;;;4.80;3.50;;;;;;;7.68;55.48;99352.44;105649;1254;61272;-25
2024/03/20 09:42:53;;;;;;;4.90;2.30;;;;;;;7.32;54.80;99346.41;105858;1257;62026;-24
2024/03/20 09:45:22;;;;;;;3.40;2.50;;;;;;;7.29;55.62;99347.80;105522;1253;75829;-25
2024/03/20 09:47:50;;;;;;;4.30;3.20;;;;;;;7.31;55.11;99345.95;105594;1254;76288;-25
2024/03/20 09:50:18;;;;;;;5.60;3.00;;;;;;;7.26;55.88;99348.38;105342;1254;74453;-25
2024/03/20 09:52:46;;;;;;;3.90;2.90;;;;;;;6.91;57.07;99346.04;105519;1253;61559;-25
2024/03/20 09:55:17;;;;;;;2.60;2.10;;;;;;;7.14;56.20;99345.63;105286;1252;61612;-26
2024/03/20 09:57:45;;;;;;;3.10;2.70;;;;;;;7.03;56.96;99347.00;105692;1254;76196;-25
2024/03/20 10:00:18;;;;;;;4.00;3.20;;;;;;;6.77;57.74;99343.55;105703;1252;74722;-25
2024/03/20 10:02:49;;;;;;;2.60;2.00;;;;;;;6.90;57.24;99340.38;105561;1254;73209;-25
2024/03/20 10:05:16;;;;;;;2.90;2.50;;;;;;;7.26;56.25;99339.70;105471;1252;61432;-25
2024/03/20 10:07:47;;;;;;;2.40;1.90;;;;;;;7.30;56.97;99334.42;105505;1253;61433;-25
2024/03/20 10:10:15;;;;;;;2.20;1.80;;;;;;;7.71;55.36;99328.02;105695;1259;74639;-25
2024/03/20 10:12:45;;;;;;;3.20;2.30;;;;;;;8.65;53.24;99331.91;105930;1255;74799;-25
2024/03/20 10:15:14;;;;;;;3.70;2.20;;;;;;;8.95;51.71;99329.66;105447;1253;74458;-25
2024/03/20 10:17:45;;;;;;;3.10;2.30;;;;;;;9.11;51.22;99333.54;105586;1253;62794;-25
2024/03/20 10:20:16;;;;;;;4.10;2.40;;;;;;;9.38;50.45;99326.59;105628;1261;61911;-25
2024/03/20 10:22:45;;;;;;;4.50;3.00;;;;;;;8.79;52.18;99328.83;105686;1254;76295;-25
2024/03/20 10:25:24;;;;;;;3.20;2.50;;;;;;;8.49;52.15;99331.91;105599;1260;75754;-25
2024/03/20 10:27:54;;;;;;;4.60;2.70;;;;;;;8.90;51.07;99325.85;105554;1256;74283;-25
2024/03/20 10:30:21;;;;;;;3.80;2.80;;;;;;;8.84;50.98;99319.50;105632;1253;61375;-25
2024/03/20 10:32:59;;;;;;;5.40;3.60;;;;;;;8.89;52.00;99317.95;105764;1256;61807;-26
2024/03/20 10:35:27;;;;;;;6.10;3.70;;;;;;;8.94;51.14;99313.80;105748;1258;76236;-25
2024/03/20 10:37:54;;;;;;;4.20;3.20;;;;;;;8.65;51.92;99312.97;105695;1255;75841;-25
2024/03/20 10:40:21;;;;;;;3.50;2.70;;;;;;;8.05;52.02;99306.98;105908;1254;74029;-26
2024/03/20 10:42:50;;;;;;;4.50;2.20;;;;;;;8.33;52.02;99306.02;105925;1254;61378;-26
2024/03/20 10:45:18;;;;;;;3.80;3.20;;;;;;;7.98;53.92;99304.89;105725;1259;62171;-26
2024/03/20 10:47:45;;;;;;;2.30;1.90;;;;;;;8.74;52.14;99307.86;105700;1261;75973;-26
2024/03/20 10:50:19;;;;;;;3.30;2.50;;;;;;;8.31;50.67;99305.63;105589;1259;76261;-27
2024/03/20 10:52:46;;;;;;;;;;;;;;;8.57;50.27;99304.16;105513;1254;74294;-27
2024/03/20 10:55:18;;;;;;;2.90;2.30;;;;;;;8.63;48.76;99301.42;105606;1256;61432;-27
2024/03/20 10:57:51;;;;;;;3.10;2.20;;;;;;;8.38;49.69;99298.05;105754;1258;61637;-27
2024/03/20 11:00:20;;;;;;;3.70;2.90;;;;;;;8.59;48.76;99299.93;105721;1254;76396;-27
2024/03/20 11:02:47;;;;;;;5.70;4.30;;;;;;;8.62;49.44;99296.02;105689;1261;75142;-26
2024/03/20 11:05:33;;;;;;;4.50;3.20;;;;;;;8.18;50.92;99292.63;105728;1256;74021;-27
2024/03/20 11:08:01;;;;;;;4.50;3.20;;;;;;;8.13;50.78;99286.55;105752;1253;61333;-27
2024/03/20 11:10:29;;;;;;;4.10;3.10;;;;;;;8.28;51.36;99281.95;105914;1256;62021;-27
2024/03/20 11:12:57;;;;;;;3.30;3.00;;;;;;;7.90;51.73;99283.09;105742;1254;75994;-27
2024/03/20 11:15:27;;;;;;;9.90;6.80;;;;;;;7.80;53.04;99281.69;105913;1256;76254;-27
2024/03/20 11:17:53;;;;;;;3.90;2.50;;;;;;;8.06;52.04;99286.02;105660;1259;73457;-27
2024/03/20 11:20:33;;;;;;;2.80;1.90;;;;;;;7.67;51.38;99281.96;105824;1254;61282;-27
2024/03/20 11:23:05;;;;;;;5.40;2.30;;;;;;;7.87;51.22;99281.88;105624;1260;61662;-27
2024/03/20 11:25:36;;;;;;;2.90;2.10;;;;;;;8.19;49.74;99274.93;105649;1254;75145;-27
2024/03/20 11:28:04;;;;;;;3.60;2.00;;;;;;;8.65;49.41;99275.44;105696;1260;76257;-27
2024/03/20 11:30:31;;;;;;;3.50;2.10;;;;;;;9.21;48.41;99274.98;105674;1254;73278;-26
2024/03/20 11:32:59;;;;;;;2.80;1.70;;;;;;;8.97;49.73;99270.92;105928;1256;61324;-27
2024/03/20 11:35:27;;;;;;;7.70;3.00;;;;;;;8.40;51.57;99267.48;105939;1256;61730;-31
2024/03/20 11:37:55;;;;;;;2.90;2.40;;;;;;;7.95;51.70;99270.34;105689;1254;76386;-27
2024/03/20 11:48:02;;;;;;;3.80;2.60;;;;;;;8.66;49.37;99272.63;102649;1294;600243;-26
2024/03/20 11:50:31;;;;;;;3.80;3.10;;;;;;;8.11;52.41;99271.80;104793;1272;61205;-26
2024/03/20 11:52:59;;;;;;;4.50;3.00;;;;;;;8.07;50.81;99267.95;104827;1271;62479;-26
2024/03/20 11:55:34;;;;;;;4.30;3.50;;;;;;;8.33;50.68;99270.89;104736;1271;74462;-26
2024/03/20 11:58:05;;;;;;;3.90;2.90;;;;;;;7.94;51.97;99268.46;104766;1272;76714;-26
2024/03/20 12:00:33;;;;;;;2.50;1.90;;;;;;;7.84;52.39;99268.25;104386;1276;283960;-28
2024/03/20 12:03:01;;;;;;;3.70;3.10;;;;;;;7.30;53.32;99266.56;104809;1272;61192;-27
2024/03/20 12:05:28;;;;;;;3.50;2.70;;;;;;;7.11;54.96;99271.73;104856;1269;62386;-26
2024/03/20 12:07:57;;;;;;;3.90;3.20;;;;;;;7.58;53.31;99271.17;104926;1272;75813;-27
2024/03/20 12:10:36;;;;;;;3.50;2.30;;;;;;;7.38;53.18;99265.39;104787;1273;76245;-28
2024/03/20 12:13:07;;;;;;;5.60;3.40;;;;;;;6.86;53.96;99274.87;104612;1273;74140;-28
2024/03/20 12:15:36;;;;;;;2.70;2.10;;;;;;;7.07;52.82;99274.92;104805;1269;62123;-27
2024/03/20 12:18:04;;;;;;;4.80;2.90;;;;;;;7.68;51.86;99273.27;104848;1261;61732;-27
2024/03/20 12:20:33;;;;;;;17.40;9.70;;;;;;;7.77;51.43;99275.27;105259;1265;75071;-28